Terminal Aerodrome Forecast
Issued by NWS Spokane, WA

Home | Current Version | Previous Version | Text Only | Print | Product List | Glossary On
Versions: 1 2 3 4 5 6 7 8 9 10 11 12 13 14 15 16 17 18 19
000
FTUS46 KOTX 250005 AAA
TAFLWS
TAF AMD
KLWS 250005Z 2500/2524 29015KT P6SM FEW040 BKN045
     FM250200 23009KT P6SM OVC060
     FM251200 20010G20KT P6SM OVC045
     FM251500 18014G24KT P6SM OVC030
     FM251800 21019G28KT P6SM -SN OVC012=

USA.gov is the U.S. government's official web portal to all federal, state and local government web resources and services.